Time;durP1;ratioP1;P1;durP2;ratioP2;P2;SDS_P1;SDS_P2;PMS_P1;PMS_P2;Temp;Humidity;BMP_temperature;BMP_pressure;BME280_temperature;BME280_humidity;BME280_pressure;Samples;Min_cycle;Max_cycle;Signal;HPM_P1;HPM_P2
2021/06/09 00:00:29;;;;;;;10.53;7.53;;;18.10;99.90;;;;;;5115933;28;20654;-79
2021/06/09 00:02:54;;;;;;;11.67;8.27;;;18.10;99.90;;;;;;5098928;28;20660;-79
2021/06/09 00:05:20;;;;;;;12.00;8.43;;;18.00;99.90;;;;;;5098741;28;20234;-78
2021/06/09 00:07:45;;;;;;;11.43;7.60;;;17.90;99.90;;;;;;5098904;28;20180;-79
2021/06/09 00:10:11;;;;;;;11.17;8.00;;;17.90;99.90;;;;;;5098466;28;20208;-79
2021/06/09 00:12:37;;;;;;;11.90;7.40;;;17.80;99.90;;;;;;5115804;28;20210;-79
2021/06/09 00:15:07;;;;;;;12.20;7.70;;;17.80;99.90;;;;;;5116001;28;20172;-79
2021/06/09 00:17:32;;;;;;;9.80;7.07;;;17.80;99.90;;;;;;5115714;28;20176;-79
2021/06/09 00:19:58;;;;;;;12.47;7.37;;;17.70;99.90;;;;;;5115531;28;20179;-79
2021/06/09 00:22:23;;;;;;;10.60;7.17;;;17.70;99.90;;;;;;5115548;28;20210;-79
2021/06/09 00:24:49;;;;;;;11.33;7.50;;;17.70;99.90;;;;;;5098040;28;20192;-79
2021/06/09 00:27:14;;;;;;;9.30;7.50;;;17.70;99.90;;;;;;5115132;28;20176;-79
2021/06/09 00:29:40;;;;;;;10.37;7.63;;;17.70;99.90;;;;;;5098222;28;20688;-79
2021/06/09 00:32:06;;;;;;;11.37;7.83;;;17.70;99.90;;;;;;5097892;28;20312;-79
2021/06/09 00:34:32;;;;;;;10.73;7.80;;;17.70;99.90;;;;;;5098134;28;20639;-79
2021/06/09 00:36:58;;;;;;;10.37;7.53;;;17.70;99.90;;;;;;5098134;28;20647;-79
2021/06/09 00:39:23;;;;;;;10.33;7.70;;;17.70;99.90;;;;;;5114573;28;20179;-78
2021/06/09 00:41:49;;;;;;;12.63;7.43;;;17.70;99.90;;;;;;5098284;28;20200;-79
2021/06/09 00:44:14;;;;;;;10.67;7.60;;;17.70;99.90;;;;;;5098139;28;20184;-79
2021/06/09 00:46:41;;;;;;;10.03;7.43;;;17.70;99.90;;;;;;5114634;28;20180;-79
2021/06/09 00:49:07;;;;;;;11.27;8.07;;;17.70;99.90;;;;;;5098005;28;20191;-79
2021/06/09 00:51:32;;;;;;;11.07;8.13;;;17.70;99.90;;;;;;5097732;28;20196;-78
2021/06/09 00:54:03;;;;;;;10.20;7.57;;;17.80;99.90;;;;;;5115405;28;20250;-79
2021/06/09 00:56:28;;;;;;;9.27;7.27;;;17.80;99.90;;;;;;5099038;28;20228;-79
2021/06/09 00:58:54;;;;;;;10.30;7.50;;;17.80;99.90;;;;;;5097890;28;20638;-78
2021/06/09 01:01:21;;;;;;;11.73;8.63;;;17.80;99.90;;;;;;5098286;28;20203;-79
2021/06/09 01:03:47;;;;;;;9.70;7.23;;;17.90;99.90;;;;;;5098040;28;20183;-78
2021/06/09 01:06:13;;;;;;;11.93;8.57;;;17.80;99.90;;;;;;5114830;28;20183;-79
2021/06/09 01:08:39;;;;;;;11.80;8.23;;;17.90;99.90;;;;;;5097789;28;20266;-79
2021/06/09 01:11:06;;;;;;;10.57;7.63;;;17.90;99.90;;;;;;5097291;28;20707;-79
2021/06/09 01:13:32;;;;;;;12.30;8.27;;;17.80;99.90;;;;;;5115177;28;20196;-79
2021/06/09 01:15:58;;;;;;;11.80;8.10;;;17.80;99.90;;;;;;5097967;28;20636;-79
2021/06/09 01:18:24;;;;;;;13.90;8.10;;;17.80;99.90;;;;;;5114337;28;20648;-79
2021/06/09 01:20:49;;;;;;;11.17;8.33;;;17.70;99.90;;;;;;5113924;28;20198;-79
2021/06/09 01:23:15;;;;;;;12.47;8.83;;;17.70;99.90;;;;;;5114883;28;20173;-79
2021/06/09 01:25:41;;;;;;;12.20;8.23;;;17.70;99.90;;;;;;5114710;28;20207;-79
2021/06/09 01:28:07;;;;;;;12.43;8.90;;;17.70;99.90;;;;;;5097902;28;20180;-79
2021/06/09 01:30:33;;;;;;;14.37;9.23;;;17.70;99.90;;;;;;5097318;28;20200;-79
2021/06/09 01:32:59;;;;;;;11.10;8.57;;;17.70;99.90;;;;;;5114802;28;20315;-79
2021/06/09 01:35:24;;;;;;;12.47;8.77;;;17.60;99.90;;;;;;5097941;28;20275;-79
2021/06/09 01:37:50;;;;;;;12.70;8.63;;;17.60;99.90;;;;;;5098438;28;20187;-79
2021/06/09 01:40:18;;;;;;;12.77;9.30;;;17.60;99.90;;;;;;5097443;28;20181;-79
2021/06/09 01:42:44;;;;;;;12.10;8.50;;;17.60;99.90;;;;;;5097538;28;20202;-79
2021/06/09 01:45:12;;;;;;;13.73;9.17;;;17.50;99.90;;;;;;5114746;28;20176;-80
2021/06/09 01:47:38;;;;;;;12.67;8.73;;;17.50;99.90;;;;;;5114337;28;20627;-79
2021/06/09 01:50:06;;;;;;;13.97;10.07;;;17.50;99.90;;;;;;5096786;28;20261;-79
2021/06/09 01:52:31;;;;;;;15.27;9.17;;;17.40;99.90;;;;;;5114203;28;20192;-79
2021/06/09 01:54:57;;;;;;;14.50;9.43;;;17.40;99.90;;;;;;5098069;28;20173;-79
2021/06/09 01:57:23;;;;;;;15.27;9.90;;;17.40;99.90;;;;;;5114671;28;20640;-79
2021/06/09 01:59:48;;;;;;;13.27;9.50;;;17.40;99.90;;;;;;5101111;28;20184;-78
2021/06/09 02:02:14;;;;;;;14.67;9.67;;;17.40;99.90;;;;;;5100369;28;20281;-78
2021/06/09 02:04:42;;;;;;;15.40;10.10;;;17.40;99.90;;;;;;5098237;28;20229;-78
2021/06/09 02:07:07;;;;;;;13.30;9.53;;;17.30;99.90;;;;;;5115161;28;20631;-77
2021/06/09 02:09:34;;;;;;;14.00;9.47;;;17.30;99.90;;;;;;5114681;28;20253;-79
2021/06/09 02:12:00;;;;;;;14.13;9.87;;;17.30;99.90;;;;;;5114760;28;20199;-77
2021/06/09 02:14:26;;;;;;;15.17;10.00;;;17.30;99.90;;;;;;5114749;28;20176;-77
2021/06/09 02:16:51;;;;;;;12.27;10.00;;;17.30;99.90;;;;;;5097733;28;20594;-77
2021/06/09 02:19:17;;;;;;;14.57;10.40;;;17.20;99.90;;;;;;5114595;28;20267;-78
2021/06/09 02:21:43;;;;;;;15.63;10.43;;;17.20;99.90;;;;;;5114632;28;20224;-77
2021/06/09 02:24:09;;;;;;;14.63;9.57;;;17.20;99.90;;;;;;5097488;28;20669;-77
2021/06/09 02:26:35;;;;;;;14.80;9.97;;;17.20;99.90;;;;;;5097575;28;20205;-78
2021/06/09 02:29:01;;;;;;;16.37;10.80;;;17.20;99.90;;;;;;5097302;28;20211;-77
2021/06/09 02:31:27;;;;;;;14.63;10.57;;;17.10;99.90;;;;;;5114220;28;20235;-78
2021/06/09 02:33:55;;;;;;;15.27;9.77;;;17.10;99.90;;;;;;5096785;28;20179;-78
2021/06/09 02:36:21;;;;;;;15.30;10.03;;;17.10;99.90;;;;;;5097152;28;20172;-78
2021/06/09 02:38:47;;;;;;;15.27;10.47;;;17.10;99.90;;;;;;5097253;28;20191;-78
2021/06/09 02:41:12;;;;;;;15.13;10.20;;;17.10;99.90;;;;;;5097079;28;20704;-77
2021/06/09 02:43:38;;;;;;;15.37;10.10;;;17.10;99.90;;;;;;5097226;28;20232;-79
2021/06/09 02:46:11;;;;;;;15.00;10.27;;;17.00;99.90;;;;;;5096988;28;20307;-78
2021/06/09 02:48:38;;;;;;;17.57;10.93;;;17.00;99.90;;;;;;5097269;28;20208;-78
2021/06/09 02:51:04;;;;;;;14.63;10.40;;;17.00;99.90;;;;;;5097009;28;20294;-78
2021/06/09 02:53:31;;;;;;;14.07;10.43;;;17.00;99.90;;;;;;5096848;28;20660;-77
2021/06/09 02:56:21;;;;;;;13.27;9.87;;;16.90;99.90;;;;;;5097074;28;20178;-78
2021/06/09 02:58:56;;;;;;;14.90;11.17;;;16.90;99.90;;;;;;5113896;28;20181;-78
2021/06/09 03:02:00;;;;;;;14.53;10.30;;;16.90;99.90;;;;;;5113411;28;20196;-78
2021/06/09 03:04:47;;;;;;;18.50;10.57;;;16.80;99.90;;;;;;5099612;28;20271;-77
2021/06/09 03:07:19;;;;;;;15.33;9.87;;;16.80;99.90;;;;;;5097426;28;20643;-77
2021/06/09 03:10:08;;;;;;;16.07;10.67;;;16.70;99.90;;;;;;5095938;28;20204;-77
2021/06/09 03:12:53;;;;;;;15.10;10.23;;;16.70;99.90;;;;;;5113069;28;20272;-77
2021/06/09 03:15:23;;;;;;;12.50;9.07;;;16.70;99.90;;;;;;5113567;28;20172;-78
2021/06/09 03:18:04;;;;;;;14.87;10.33;;;16.60;99.90;;;;;;5113480;28;20167;-78
2021/06/09 03:20:48;;;;;;;13.93;9.97;;;16.60;99.90;;;;;;5113202;28;20615;-76
2021/06/09 03:23:18;;;;;;;13.93;9.73;;;16.60;99.90;;;;;;5113614;28;20160;-77
2021/06/09 03:25:59;;;;;;;16.00;10.30;;;16.50;99.90;;;;;;5096689;28;20187;-78
2021/06/09 03:28:39;;;;;;;12.97;9.90;;;16.50;99.90;;;;;;5096529;28;20267;-78
2021/06/09 03:31:05;;;;;;;14.43;9.77;;;16.50;99.90;;;;;;5095908;28;20758;-77
2021/06/09 03:33:34;;;;;;;16.47;10.20;;;16.50;99.90;;;;;;5113344;28;20195;-77
2021/06/09 03:36:04;;;;;;;14.77;10.07;;;16.50;99.90;;;;;;5096236;28;20177;-77
2021/06/09 03:38:44;;;;;;;19.30;10.43;;;16.50;99.90;;;;;;5096080;28;20180;-78
2021/06/09 03:41:10;;;;;;;15.17;11.03;;;16.50;99.90;;;;;;5095950;28;20202;-77
2021/06/09 03:43:37;;;;;;;15.63;10.73;;;16.60;99.90;;;;;;5113311;28;20265;-77
2021/06/09 03:46:02;;;;;;;15.27;10.50;;;16.60;99.90;;;;;;5112978;28;20537;-77
2021/06/09 03:48:29;;;;;;;13.27;9.63;;;16.50;99.90;;;;;;5095899;28;20272;-78
2021/06/09 03:50:56;;;;;;;17.93;11.20;;;16.50;99.90;;;;;;5095664;28;20468;-77
2021/06/09 03:53:22;;;;;;;16.33;11.77;;;16.50;99.90;;;;;;5095986;28;20207;-77
2021/06/09 03:55:47;;;;;;;17.47;11.17;;;16.60;99.90;;;;;;5112703;28;20179;-78
2021/06/09 03:58:15;;;;;;;14.73;10.07;;;16.60;99.90;;;;;;5112754;28;20173;-77
2021/06/09 04:00:41;;;;;;;16.53;11.00;;;16.70;99.90;;;;;;5095411;28;20603;-77
2021/06/09 04:03:07;;;;;;;17.10;11.00;;;16.70;99.90;;;;;;5112543;28;20172;-77
2021/06/09 04:05:32;;;;;;;16.00;11.17;;;16.80;99.90;;;;;;5115584;28;20658;-80
2021/06/09 04:07:58;;;;;;;16.10;10.63;;;16.80;99.90;;;;;;5116524;28;20696;-80
2021/06/09 04:10:24;;;;;;;18.00;11.20;;;16.80;99.90;;;;;;5099683;28;20207;-79
2021/06/09 04:12:50;;;;;;;16.27;10.93;;;16.80;99.90;;;;;;5102459;28;20192;-79
2021/06/09 04:15:17;;;;;;;17.30;10.93;;;16.80;99.90;;;;;;5100375;28;20164;-79
2021/06/09 04:17:43;;;;;;;16.63;10.27;;;16.80;99.90;;;;;;5099099;28;20191;-80
2021/06/09 04:20:09;;;;;;;15.63;10.40;;;16.80;99.90;;;;;;5098466;28;20176;-80
2021/06/09 04:22:35;;;;;;;17.50;10.47;;;16.80;99.90;;;;;;5116582;28;20655;-79
2021/06/09 04:25:01;;;;;;;17.63;11.43;;;16.80;99.90;;;;;;5099820;28;20192;-79
2021/06/09 04:27:28;;;;;;;17.70;10.87;;;16.90;99.90;;;;;;5115974;28;20192;-80
2021/06/09 04:29:55;;;;;;;16.63;11.33;;;17.00;99.90;;;;;;5098938;28;20256;-78
2021/06/09 04:32:20;;;;;;;17.57;11.23;;;17.10;99.90;;;;;;5098465;28;20195;-78
2021/06/09 04:34:51;;;;;;;14.33;9.83;;;17.10;99.90;;;;;;5098223;28;20262;-80
2021/06/09 04:37:18;;;;;;;13.70;9.73;;;17.10;99.90;;;;;;5098444;28;20172;-79
2021/06/09 04:39:44;;;;;;;15.77;10.03;;;17.20;99.90;;;;;;5114655;28;20518;-79
2021/06/09 04:42:10;;;;;;;15.33;10.50;;;17.20;99.90;;;;;;5098077;28;20207;-78
2021/06/09 04:44:37;;;;;;;17.83;11.47;;;17.20;99.90;;;;;;5115021;28;20177;-81
2021/06/09 04:47:03;;;;;;;16.60;10.77;;;17.30;99.90;;;;;;5097540;28;20259;-80
2021/06/09 04:49:33;;;;;;;17.93;11.53;;;17.40;99.90;;;;;;5114391;28;20277;-78
2021/06/09 04:51:59;;;;;;;16.83;10.90;;;17.50;99.90;;;;;;5097553;28;20307;-78
2021/06/09 04:54:24;;;;;;;16.40;11.10;;;17.60;99.90;;;;;;5096681;28;20861;-78
2021/06/09 04:56:50;;;;;;;14.87;10.43;;;17.70;99.90;;;;;;5113162;28;20255;-77
2021/06/09 04:59:15;;;;;;;17.43;11.00;;;18.00;99.90;;;;;;5112772;28;20199;-78
2021/06/09 05:01:41;;;;;;;14.57;10.47;;;18.00;99.90;;;;;;5096278;28;20235;-77
2021/06/09 05:04:06;;;;;;;14.70;10.20;;;18.00;99.90;;;;;;5092557;28;20679;-77
2021/06/09 05:06:32;;;;;;;15.40;10.60;;;18.00;99.90;;;;;;5088862;28;20340;-77
2021/06/09 05:08:58;;;;;;;15.33;10.20;;;18.00;99.90;;;;;;5086638;28;20161;-77
2021/06/09 05:11:28;;;;;;;14.10;9.33;;;18.10;99.90;;;;;;5100285;28;20204;-77
2021/06/09 05:13:54;;;;;;;16.23;10.97;;;18.10;99.90;;;;;;5106279;27;20171;-80
2021/06/09 05:16:20;;;;;;;16.33;11.03;;;18.20;99.90;;;;;;5094314;28;20169;-77
2021/06/09 05:18:46;;;;;;;14.60;10.37;;;18.30;99.90;;;;;;5090369;28;20195;-78
2021/06/09 05:21:12;;;;;;;15.13;10.47;;;18.50;99.90;;;;;;5079250;28;20265;-78
2021/06/09 05:23:39;;;;;;;15.33;9.73;;;18.70;99.90;;;;;;5093076;28;20177;-77
2021/06/09 05:26:05;;;;;;;13.77;9.70;;;18.80;99.90;;;;;;5109657;28;20204;-78
2021/06/09 05:28:33;;;;;;;19.07;10.20;;;18.80;99.90;;;;;;5097629;28;20563;-78
2021/06/09 05:30:58;;;;;;;14.43;9.70;;;18.90;99.90;;;;;;5080190;28;20577;-77
2021/06/09 05:33:24;;;;;;;13.73;9.53;;;19.00;99.90;;;;;;5083545;28;20216;-78
2021/06/09 05:35:53;;;;;;;14.10;9.10;;;19.10;99.90;;;;;;5082567;28;20278;-76
2021/06/09 05:38:19;;;;;;;13.83;7.90;;;19.10;99.90;;;;;;5102238;28;20653;-77
2021/06/09 05:40:45;;;;;;;11.37;7.87;;;19.20;99.90;;;;;;5117892;28;20180;-76
2021/06/09 05:43:10;;;;;;;12.37;7.70;;;19.70;99.90;;;;;;5118042;28;20555;-77
2021/06/09 05:45:36;;;;;;;10.17;7.47;;;20.20;99.90;;;;;;5100667;28;20180;-77
2021/06/09 05:48:02;;;;;;;12.00;7.20;;;20.60;99.90;;;;;;5117881;28;20188;-76
2021/06/09 05:50:29;;;;;;;11.43;7.37;;;20.80;99.90;;;;;;5083537;28;20770;-77
2021/06/09 05:52:59;;;;;;;14.20;8.00;;;20.90;99.90;;;;;;5117768;28;20693;-77
2021/06/09 05:55:26;;;;;;;12.13;7.80;;;21.20;99.90;;;;;;5101414;28;20647;-76
2021/06/09 05:57:52;;;;;;;9.67;6.87;;;21.40;99.90;;;;;;5101055;28;20273;-77
2021/06/09 06:00:19;;;;;;;10.43;6.97;;;21.60;99.90;;;;;;5100359;28;20203;-77
2021/06/09 06:02:45;;;;;;;10.90;6.70;;;22.00;99.90;;;;;;5100787;28;20288;-77
2021/06/09 06:05:11;;;;;;;10.33;6.20;;;22.20;99.90;;;;;;5117664;28;20198;-77
2021/06/09 06:07:37;;;;;;;9.67;6.33;;;22.50;99.90;;;;;;5100857;28;20245;-77
2021/06/09 06:10:04;;;;;;;8.93;6.43;;;22.70;99.90;;;;;;5117245;28;20240;-77
2021/06/09 06:12:29;;;;;;;9.30;6.73;;;23.10;99.90;;;;;;5117607;28;20245;-78
2021/06/09 06:14:55;;;;;;;8.97;6.70;;;23.40;99.90;;;;;;5100574;28;20176;-77
2021/06/09 06:17:21;;;;;;;12.60;7.23;;;23.30;99.90;;;;;;5101758;28;20206;-78
2021/06/09 06:19:49;;;;;;;10.70;6.85;;;23.40;99.90;;;;;;5103016;28;20180;-80
2021/06/09 06:22:15;;;;;;;9.20;7.13;;;24.00;99.90;;;;;;5106642;28;20548;-79
2021/06/09 06:24:44;;;;;;;9.93;6.68;;;24.60;99.90;;;;;;5107464;28;20195;-78
2021/06/09 06:27:10;;;;;;;13.10;7.05;;;25.10;99.90;;;;;;5090672;28;20321;-79
2021/06/09 06:29:37;;;;;;;9.32;6.90;;;24.80;99.90;;;;;;5106488;28;20249;-79
2021/06/09 06:32:05;;;;;;;9.45;7.07;;;24.90;99.90;;;;;;5106821;28;20188;-79
2021/06/09 06:34:30;;;;;;;11.25;7.43;;;24.90;99.90;;;;;;5107259;28;20267;-78
2021/06/09 06:36:56;;;;;;;9.85;6.95;;;24.80;99.90;;;;;;5090030;28;20214;-78
2021/06/09 06:39:22;;;;;;;10.15;7.22;;;24.80;99.90;;;;;;5106422;28;20259;-79
2021/06/09 06:41:47;;;;;;;8.88;6.05;;;24.50;99.90;;;;;;5088220;28;20200;-79
2021/06/09 06:44:13;;;;;;;7.82;5.70;;;24.50;99.90;;;;;;5086048;28;20206;-78
2021/06/09 06:46:38;;;;;;;9.40;6.63;;;24.30;99.90;;;;;;5083418;28;20196;-78
2021/06/09 06:49:04;;;;;;;8.90;6.40;;;24.20;99.90;;;;;;5082808;28;20255;-78
2021/06/09 06:51:29;;;;;;;11.35;7.65;;;24.20;99.90;;;;;;5099609;28;20279;-77
2021/06/09 06:53:55;;;;;;;9.40;6.28;;;24.30;99.90;;;;;;5102022;28;20176;-78
2021/06/09 06:56:22;;;;;;;9.30;7.15;;;24.10;99.90;;;;;;5101817;28;20172;-78
2021/06/09 06:58:49;;;;;;;9.77;6.80;;;24.00;99.90;;;;;;5101697;28;20168;-79
2021/06/09 07:01:19;;;;;;;9.50;6.63;;;24.00;99.90;;;;;;5099873;28;20199;-78
2021/06/09 07:03:45;;;;;;;9.38;6.28;;;24.00;99.90;;;;;;5086734;28;20203;-77
2021/06/09 07:06:11;;;;;;;10.57;7.40;;;24.20;99.90;;;;;;5095289;28;20181;-78
2021/06/09 07:08:37;;;;;;;9.57;7.20;;;24.30;99.90;;;;;;5061927;28;20171;-77
2021/06/09 07:11:03;;;;;;;9.57;6.93;;;24.30;99.90;;;;;;5084642;28;20205;-79
2021/06/09 07:13:28;;;;;;;10.43;6.57;;;24.30;99.90;;;;;;5117452;28;20193;-78
2021/06/09 07:15:54;;;;;;;12.10;7.33;;;24.70;99.90;;;;;;5118091;28;20168;-78
2021/06/09 07:18:22;;;;;;;9.70;6.83;;;25.00;99.90;;;;;;5115777;28;20164;-78
2021/06/09 07:20:48;;;;;;;10.43;6.75;;;25.40;99.90;;;;;;5116399;28;20172;-78
2021/06/09 07:23:13;;;;;;;11.35;6.97;;;25.50;99.90;;;;;;5099544;28;20183;-78
2021/06/09 07:25:39;;;;;;;11.82;7.28;;;25.60;99.90;;;;;;5099108;28;20188;-78
2021/06/09 07:28:05;;;;;;;10.05;6.60;;;25.80;99.90;;;;;;5116716;28;20309;-78
2021/06/09 07:30:35;;;;;;;10.25;7.43;;;25.90;99.90;;;;;;5116554;28;20231;-78
2021/06/09 07:33:04;;;;;;;9.10;6.55;;;26.00;99.90;;;;;;5100209;28;20195;-78
2021/06/09 07:35:30;;;;;;;8.40;5.90;;;26.00;99.90;;;;;;5101192;28;20177;-78
2021/06/09 07:37:59;;;;;;;9.48;6.75;;;26.30;99.90;;;;;;5101169;28;20225;-78
2021/06/09 07:40:29;;;;;;;9.25;6.38;;;26.20;99.90;;;;;;5117063;28;20172;-78
2021/06/09 07:42:58;;;;;;;9.67;6.30;;;25.80;99.90;;;;;;5100164;28;20286;-78
2021/06/09 07:45:24;;;;;;;10.43;6.78;;;25.60;99.90;;;;;;5096745;28;20184;-78
2021/06/09 07:47:50;;;;;;;10.07;6.30;;;25.40;99.90;;;;;;5097311;28;20173;-78
2021/06/09 07:50:47;;;;;;;9.37;6.20;;;25.40;99.90;;;;;;5080934;28;20253;-78
2021/06/09 07:53:13;;;;;;;11.63;6.18;;;25.40;99.90;;;;;;5078352;28;20185;-77
2021/06/09 07:55:41;;;;;;;8.95;6.10;;;25.50;99.90;;;;;;5061926;28;20188;-78
2021/06/09 07:58:07;;;;;;;12.18;5.97;;;25.70;99.90;;;;;;5079410;28;20274;-78
2021/06/09 08:00:33;;;;;;;8.00;5.95;;;25.70;99.90;;;;;;5061898;28;20180;-78
2021/06/09 08:02:58;;;;;;;8.80;6.10;;;25.80;99.90;;;;;;5062103;28;20201;-78
2021/06/09 08:05:24;;;;;;;11.30;6.37;;;25.90;99.90;;;;;;5061961;28;20176;-78
2021/06/09 08:07:51;;;;;;;8.82;6.20;;;25.80;99.90;;;;;;5082535;28;20207;-78
2021/06/09 08:10:16;;;;;;;9.30;6.17;;;25.70;99.90;;;;;;5085861;28;20201;-78
2021/06/09 08:12:42;;;;;;;9.25;6.20;;;25.50;99.90;;;;;;5088712;28;20197;-78
2021/06/09 08:15:08;;;;;;;8.83;6.33;;;25.40;99.90;;;;;;5088507;28;20169;-78
2021/06/09 08:17:34;;;;;;;8.80;6.07;;;25.20;99.90;;;;;;5079352;28;20267;-78
2021/06/09 08:19:59;;;;;;;8.75;6.03;;;25.20;99.90;;;;;;5061984;28;20220;-78
2021/06/09 08:22:25;;;;;;;7.80;5.70;;;25.20;99.90;;;;;;5079956;28;20210;-78
2021/06/09 08:24:50;;;;;;;7.65;5.97;;;25.40;99.90;;;;;;5080396;28;20196;-78
2021/06/09 08:27:16;;;;;;;8.27;5.32;;;25.60;99.90;;;;;;5081392;28;20185;-78
2021/06/09 08:29:41;;;;;;;6.72;5.10;;;25.90;99.90;;;;;;5065463;28;20201;-78
2021/06/09 08:32:07;;;;;;;5.95;5.00;;;26.40;99.90;;;;;;5082058;28;20224;-78
2021/06/09 08:34:33;;;;;;;7.78;5.05;;;26.60;99.90;;;;;;5082487;28;20244;-78
2021/06/09 08:36:58;;;;;;;7.10;5.47;;;26.30;99.90;;;;;;5081921;28;20169;-78
2021/06/09 08:39:26;;;;;;;6.93;5.13;;;26.30;99.90;;;;;;5080414;28;20172;-78
2021/06/09 08:41:54;;;;;;;7.90;5.55;;;26.40;99.90;;;;;;5098240;28;20192;-78
2021/06/09 08:44:19;;;;;;;9.05;5.38;;;26.30;99.90;;;;;;5081430;28;20169;-78
2021/06/09 08:46:45;;;;;;;6.93;5.50;;;26.10;99.90;;;;;;5081028;28;20234;-78
2021/06/09 08:49:10;;;;;;;6.78;5.53;;;25.90;99.90;;;;;;5080217;28;20184;-78
2021/06/09 08:51:36;;;;;;;6.18;5.05;;;26.10;99.90;;;;;;5080438;28;20212;-78
2021/06/09 08:54:07;;;;;;;8.57;5.40;;;26.10;99.90;;;;;;5080984;28;20234;-78
2021/06/09 08:56:33;;;;;;;7.85;4.85;;;26.00;99.90;;;;;;5080343;28;20177;-78
2021/06/09 08:58:59;;;;;;;6.05;4.53;;;26.00;99.90;;;;;;5097677;28;20169;-78
2021/06/09 09:01:25;;;;;;;5.68;4.28;;;25.80;99.90;;;;;;5080111;28;20192;-78
2021/06/09 09:03:51;;;;;;;6.85;5.10;;;25.70;99.90;;;;;;5096608;28;20662;-78
2021/06/09 09:06:17;;;;;;;7.57;5.55;;;26.00;99.90;;;;;;5063891;28;20184;-78
2021/06/09 09:08:42;;;;;;;7.18;5.07;;;26.10;99.90;;;;;;5080496;28;20548;-78
2021/06/09 09:11:08;;;;;;;6.28;4.55;;;25.90;99.90;;;;;;5098616;28;20204;-78
2021/06/09 09:13:34;;;;;;;6.07;4.60;;;25.80;99.90;;;;;;5080921;28;20208;-78
2021/06/09 09:15:59;;;;;;;5.75;4.55;;;25.70;99.90;;;;;;5097424;28;20180;-78
2021/06/09 09:18:41;;;;;;;6.75;4.78;;;25.60;99.90;;;;;;5080560;28;20165;-78
2021/06/09 09:21:08;;;;;;;6.35;4.80;;;25.60;99.90;;;;;;5080129;28;20197;-78
2021/06/09 09:23:34;;;;;;;7.60;4.80;;;25.50;99.90;;;;;;5080149;28;20177;-78
2021/06/09 09:26:19;;;;;;;5.88;4.50;;;25.30;99.90;;;;;;5080288;28;20176;-78
2021/06/09 09:28:45;;;;;;;5.15;3.95;;;25.30;99.90;;;;;;5082324;28;20203;-78
2021/06/09 09:31:18;;;;;;;6.25;4.13;;;25.20;99.90;;;;;;5063803;28;20583;-78
2021/06/09 09:33:44;;;;;;;5.28;4.25;;;25.20;99.90;;;;;;5081375;28;20169;-78
2021/06/09 09:36:30;;;;;;;5.15;4.18;;;25.20;99.90;;;;;;5063452;28;20202;-78
2021/06/09 09:38:59;;;;;;;6.65;5.03;;;25.30;99.90;;;;;;5096993;28;20544;-78
2021/06/09 09:41:29;;;;;;;8.20;5.18;;;25.30;99.90;;;;;;5079979;28;20192;-78
2021/06/09 09:43:59;;;;;;;7.45;5.60;;;25.40;99.90;;;;;;5082444;28;20657;-77
2021/06/09 09:46:37;;;;;;;7.60;5.63;;;25.60;99.90;;;;;;5100596;28;20172;-78
2021/06/09 09:49:12;;;;;;;7.72;5.72;;;25.80;99.90;;;;;;5096528;28;20253;-78
2021/06/09 09:51:50;;;;;;;7.53;5.22;;;25.70;99.90;;;;;;5116930;28;20208;-78
2021/06/09 09:54:26;;;;;;;7.57;5.07;;;25.50;99.90;;;;;;5115547;28;20225;-78
2021/06/09 09:56:52;;;;;;;6.72;4.88;;;25.30;99.90;;;;;;5099661;28;20520;-78
2021/06/09 09:59:19;;;;;;;7.25;4.90;;;25.30;99.90;;;;;;5082184;28;20183;-79
2021/06/09 10:01:51;;;;;;;6.32;5.03;;;25.00;99.90;;;;;;5124566;28;20195;-77
2021/06/09 10:04:20;;;;;;;5.45;4.30;;;24.90;99.90;;;;;;5108121;28;20177;-78
2021/06/09 10:06:47;;;;;;;6.88;4.72;;;25.00;99.90;;;;;;5121634;28;20237;-79
2021/06/09 10:09:13;;;;;;;5.22;4.40;;;25.10;99.90;;;;;;5121539;28;20165;-79
2021/06/09 10:11:45;;;;;;;6.80;4.55;;;25.20;99.90;;;;;;5122568;28;20229;-79
2021/06/09 10:14:20;;;;;;;6.82;4.75;;;25.30;99.90;;;;;;5101013;28;20180;-79
2021/06/09 10:16:48;;;;;;;5.68;4.50;;;25.70;99.90;;;;;;5099996;28;20169;-78
2021/06/09 10:19:14;;;;;;;5.72;3.92;;;26.00;99.90;;;;;;5068095;28;20172;-79
2021/06/09 10:21:48;;;;;;;5.32;4.20;;;26.10;99.90;;;;;;5103713;28;20193;-79
2021/06/09 10:24:13;;;;;;;4.60;3.78;;;26.10;99.90;;;;;;5103952;28;20185;-79
2021/06/09 10:26:41;;;;;;;6.07;4.15;;;26.30;99.90;;;;;;5087096;28;20195;-79
2021/06/09 10:29:11;;;;;;;4.68;3.78;;;26.30;99.90;;;;;;5070264;28;20204;-79
2021/06/09 10:31:40;;;;;;;6.40;4.35;;;26.30;99.90;;;;;;5087933;28;20579;-79
2021/06/09 10:34:05;;;;;;;6.18;3.92;;;26.40;99.90;;;;;;5088500;28;20172;-79
2021/06/09 10:36:37;;;;;;;6.30;4.30;;;26.40;99.90;;;;;;5089135;28;20170;-79
2021/06/09 10:39:04;;;;;;;4.20;3.47;;;26.20;99.90;;;;;;5099109;28;20193;-80
2021/06/09 10:41:29;;;;;;;4.05;3.65;;;26.00;99.90;;;;;;5116300;28;20576;-80
2021/06/09 10:43:56;;;;;;;4.57;3.78;;;26.00;99.90;;;;;;5103782;28;20178;-79
2021/06/09 10:46:26;;;;;;;4.03;3.45;;;25.90;99.90;;;;;;5105722;28;20191;-79
2021/06/09 10:48:55;;;;;;;5.32;3.22;;;25.90;99.90;;;;;;5120512;28;20172;-79
2021/06/09 10:51:20;;;;;;;4.43;3.63;;;26.10;99.90;;;;;;5121367;28;20701;-79
2021/06/09 10:53:46;;;;;;;3.90;3.10;;;26.30;99.90;;;;;;5106370;28;20168;-79
2021/06/09 10:56:15;;;;;;;4.80;3.65;;;26.50;99.90;;;;;;5103314;28;20622;-79
2021/06/09 10:58:40;;;;;;;4.13;3.38;;;26.70;99.90;;;;;;5120463;28;20534;-82
2021/06/09 11:01:07;;;;;;;3.85;3.15;;;26.60;99.90;;;;;;5100574;28;20192;-78
2021/06/09 11:03:34;;;;;;;5.05;3.45;;;26.70;99.90;;;;;;5099791;28;20828;-81
2021/06/09 11:06:01;;;;;;;6.28;3.53;;;26.30;99.90;;;;;;5100104;28;20172;-78
2021/06/09 11:08:28;;;;;;;5.32;3.88;;;26.00;99.90;;;;;;5116176;28;20178;-78
2021/06/09 11:10:54;;;;;;;4.55;3.70;;;25.60;99.90;;;;;;5099586;28;20192;-78
2021/06/09 11:13:33;;;;;;;4.75;3.60;;;25.40;99.90;;;;;;5101053;28;20199;-78
2021/06/09 11:16:06;;;;;;;6.10;3.70;;;25.20;99.90;;;;;;5114141;28;20172;-77
2021/06/09 11:18:40;;;;;;;5.97;3.50;;;25.30;99.90;;;;;;5116453;28;20209;-77
2021/06/09 11:21:10;;;;;;;3.80;3.17;;;25.30;99.90;;;;;;5115369;28;20336;-78
2021/06/09 11:23:38;;;;;;;4.70;3.55;;;25.40;99.90;;;;;;5098926;28;20315;-78
2021/06/09 11:26:05;;;;;;;4.28;3.33;;;25.70;99.90;;;;;;5116169;28;20173;-79
2021/06/09 11:28:36;;;;;;;3.83;3.05;;;26.10;99.90;;;;;;5099432;28;20176;-79
2021/06/09 11:31:09;;;;;;;4.78;3.80;;;26.30;99.90;;;;;;5116870;28;20211;-78
2021/06/09 11:34:02;;;;;;;5.88;4.53;;;26.20;99.90;;;;;;5116226;28;20228;-78
2021/06/09 11:36:32;;;;;;;4.70;3.80;;;26.10;99.90;;;;;;5115077;28;20157;-78
2021/06/09 11:38:59;;;;;;;4.78;3.85;;;26.20;99.90;;;;;;5115674;28;20168;-79
2021/06/09 11:41:31;;;;;;;4.50;3.67;;;26.20;99.90;;;;;;5116770;28;20550;-79
2021/06/09 11:43:57;;;;;;;4.25;3.28;;;26.30;99.90;;;;;;5098172;28;20714;-80
2021/06/09 11:46:34;;;;;;;5.63;2.88;;;26.50;99.90;;;;;;5093155;28;20188;-77
2021/06/09 11:49:11;;;;;;;3.38;2.72;;;26.70;99.90;;;;;;5094993;28;20204;-78
2021/06/09 11:52:07;;;;;;;3.30;2.78;;;26.70;99.90;;;;;;5115600;28;20211;-77
2021/06/09 11:54:33;;;;;;;3.13;2.72;;;26.80;99.90;;;;;;5115019;28;20212;-78
2021/06/09 11:57:02;;;;;;;4.82;2.90;;;27.00;99.90;;;;;;5114740;28;20517;-78
2021/06/09 11:59:30;;;;;;;3.42;2.65;;;26.90;99.90;;;;;;5097924;28;20180;-78
2021/06/09 12:01:59;;;;;;;4.55;2.88;;;26.90;99.90;;;;;;5114622;28;20188;-77
2021/06/09 12:04:28;;;;;;;3.55;3.00;;;27.00;99.90;;;;;;5115334;28;20165;-78
2021/06/09 12:07:01;;;;;;;3.72;3.10;;;26.90;99.90;;;;;;5098886;28;20222;-78
2021/06/09 12:09:30;;;;;;;3.42;2.70;;;27.10;99.90;;;;;;5097091;28;20186;-78
2021/06/09 12:11:57;;;;;;;3.55;3.05;;;27.10;99.90;;;;;;5114474;28;20212;-78
2021/06/09 12:14:25;;;;;;;4.50;3.20;;;27.00;99.90;;;;;;5112594;28;20176;-78
2021/06/09 12:16:54;;;;;;;3.58;3.00;;;27.10;99.90;;;;;;5109177;28;21610;-78
2021/06/09 12:19:24;;;;;;;4.03;2.60;;;27.00;99.90;;;;;;5097336;28;20200;-78
2021/06/09 12:21:53;;;;;;;3.90;3.20;;;27.10;99.90;;;;;;5104909;28;20287;-78
2021/06/09 12:24:19;;;;;;;4.30;2.90;;;27.20;99.90;;;;;;5078317;28;20192;-79
2021/06/09 12:26:52;;;;;;;2.92;2.53;;;27.10;99.90;;;;;;5077967;28;20272;-78
2021/06/09 12:29:22;;;;;;;4.45;2.97;;;27.00;99.90;;;;;;5090489;28;20274;-79
2021/06/09 12:31:47;;;;;;;3.42;2.80;;;26.80;99.90;;;;;;5098220;28;20262;-79
2021/06/09 12:34:21;;;;;;;3.55;2.85;;;26.70;99.90;;;;;;5116444;28;20177;-79
2021/06/09 12:36:54;;;;;;;3.63;3.13;;;26.40;99.90;;;;;;5116099;28;20204;-78
2021/06/09 12:39:22;;;;;;;3.88;2.85;;;26.40;99.90;;;;;;5115092;28;20168;-78
2021/06/09 12:41:49;;;;;;;2.70;2.35;;;26.40;99.90;;;;;;5115378;28;20188;-79
2021/06/09 12:44:14;;;;;;;3.33;2.47;;;26.50;99.90;;;;;;5103876;28;20603;-78